sensor_id;sensor_type;location;lat;lon;timestamp;pressure;altitude;pressure_sealevel;temperature;humidity
17060;BME280;8646;49.716;9.266;2023-08-31T00:02:22;99637.06;;;15.02;91.80
17060;BME280;8646;49.716;9.266;2023-08-31T00:05:26;99634.69;;;14.98;92.08
17060;BME280;8646;49.716;9.266;2023-08-31T00:08:32;99629.25;;;14.98;92.49
17060;BME280;8646;49.716;9.266;2023-08-31T00:11:35;99635.00;;;15.06;93.37
17060;BME280;8646;49.716;9.266;2023-08-31T00:14:40;99645.00;;;15.18;92.54
17060;BME280;8646;49.716;9.266;2023-08-31T00:17:43;99636.19;;;15.27;92.87
17060;BME280;8646;49.716;9.266;2023-08-31T00:20:46;99634.00;;;15.32;93.54
17060;BME280;8646;49.716;9.266;2023-08-31T00:23:49;99637.25;;;15.37;92.40
17060;BME280;8646;49.716;9.266;2023-08-31T00:26:52;99639.00;;;15.38;92.40
17060;BME280;8646;49.716;9.266;2023-08-31T00:29:56;99639.88;;;15.39;92.00
17060;BME280;8646;49.716;9.266;2023-08-31T00:32:59;99645.44;;;15.37;91.84
17060;BME280;8646;49.716;9.266;2023-08-31T00:36:03;99638.91;;;15.40;91.86
17060;BME280;8646;49.716;9.266;2023-08-31T00:39:06;99621.47;;;15.30;91.04
17060;BME280;8646;49.716;9.266;2023-08-31T00:42:13;99641.78;;;15.49;91.13
17060;BME280;8646;49.716;9.266;2023-08-31T00:45:17;99644.75;;;15.59;90.65
17060;BME280;8646;49.716;9.266;2023-08-31T00:48:20;99641.41;;;15.55;91.34
17060;BME280;8646;49.716;9.266;2023-08-31T00:51:23;99634.97;;;15.56;91.22
17060;BME280;8646;49.716;9.266;2023-08-31T00:54:28;99643.88;;;15.58;91.29
17060;BME280;8646;49.716;9.266;2023-08-31T00:57:33;99647.38;;;15.60;91.47
17060;BME280;8646;49.716;9.266;2023-08-31T01:00:46;99643.66;;;15.61;91.26
17060;BME280;8646;49.716;9.266;2023-08-31T01:03:53;99639.19;;;15.60;90.62
17060;BME280;8646;49.716;9.266;2023-08-31T01:07:03;99605.00;;;15.31;90.92
17060;BME280;8646;49.716;9.266;2023-08-31T01:10:14;99641.06;;;15.47;90.71
17060;BME280;8646;49.716;9.266;2023-08-31T01:13:24;99645.31;;;15.39;91.15
17060;BME280;8646;49.716;9.266;2023-08-31T01:16:30;99637.94;;;15.28;91.00
17060;BME280;8646;49.716;9.266;2023-08-31T01:19:48;99646.63;;;15.33;90.45
17060;BME280;8646;49.716;9.266;2023-08-31T01:22:55;99649.59;;;15.30;91.06
17060;BME280;8646;49.716;9.266;2023-08-31T01:26:03;99644.25;;;15.28;91.11
17060;BME280;8646;49.716;9.266;2023-08-31T01:29:07;99635.19;;;15.28;91.15
17060;BME280;8646;49.716;9.266;2023-08-31T01:32:10;99640.66;;;15.28;91.41
17060;BME280;8646;49.716;9.266;2023-08-31T01:35:15;99648.16;;;15.24;91.34
17060;BME280;8646;49.716;9.266;2023-08-31T01:38:21;99639.88;;;15.26;90.69
17060;BME280;8646;49.716;9.266;2023-08-31T01:41:30;99647.75;;;15.18;90.63
17060;BME280;8646;49.716;9.266;2023-08-31T01:44:36;99647.09;;;15.14;90.68
17060;BME280;8646;49.716;9.266;2023-08-31T01:47:40;99654.53;;;15.00;91.04
17060;BME280;8646;49.716;9.266;2023-08-31T01:50:43;99655.72;;;14.96;91.74
17060;BME280;8646;49.716;9.266;2023-08-31T01:53:48;99658.78;;;14.91;92.03
17060;BME280;8646;49.716;9.266;2023-08-31T01:56:52;99658.13;;;14.87;91.59
17060;BME280;8646;49.716;9.266;2023-08-31T01:59:55;99663.75;;;14.84;91.75
17060;BME280;8646;49.716;9.266;2023-08-31T02:02:57;99664.78;;;14.83;91.75
17060;BME280;8646;49.716;9.266;2023-08-31T02:06:01;99677.38;;;14.84;92.49
17060;BME280;8646;49.716;9.266;2023-08-31T02:09:05;99665.41;;;14.74;92.26
17060;BME280;8646;49.716;9.266;2023-08-31T02:12:09;99651.34;;;14.68;92.79
17060;BME280;8646;49.716;9.266;2023-08-31T02:15:12;99646.75;;;14.43;93.18
17060;BME280;8646;49.716;9.266;2023-08-31T02:18:17;99665.63;;;14.59;93.49
17060;BME280;8646;49.716;9.266;2023-08-31T02:21:20;99676.94;;;14.65;93.41
17060;BME280;8646;49.716;9.266;2023-08-31T02:24:23;99666.25;;;14.62;93.19
17060;BME280;8646;49.716;9.266;2023-08-31T02:27:27;99677.38;;;14.59;93.53
17060;BME280;8646;49.716;9.266;2023-08-31T02:30:31;99673.75;;;14.46;93.68
17060;BME280;8646;49.716;9.266;2023-08-31T02:33:41;99681.47;;;14.39;94.01
17060;BME280;8646;49.716;9.266;2023-08-31T02:36:44;99673.78;;;14.32;94.17
17060;BME280;8646;49.716;9.266;2023-08-31T02:39:46;99689.00;;;14.22;94.04
17060;BME280;8646;49.716;9.266;2023-08-31T02:42:51;99687.47;;;14.18;94.30
17060;BME280;8646;49.716;9.266;2023-08-31T02:45:59;99686.00;;;14.12;94.34
17060;BME280;8646;49.716;9.266;2023-08-31T02:49:02;99687.84;;;14.11;94.29
17060;BME280;8646;49.716;9.266;2023-08-31T02:52:05;99695.81;;;14.14;94.24
17060;BME280;8646;49.716;9.266;2023-08-31T02:55:08;99702.91;;;14.17;94.34
17060;BME280;8646;49.716;9.266;2023-08-31T02:58:13;99699.31;;;14.17;94.48
17060;BME280;8646;49.716;9.266;2023-08-31T03:01:16;99702.25;;;14.13;94.16
17060;BME280;8646;49.716;9.266;2023-08-31T03:04:18;99698.13;;;14.21;94.88
17060;BME280;8646;49.716;9.266;2023-08-31T03:07:21;99697.22;;;14.07;94.60
17060;BME280;8646;49.716;9.266;2023-08-31T03:10:27;99698.38;;;14.03;94.57
17060;BME280;8646;49.716;9.266;2023-08-31T03:13:32;99697.50;;;14.03;94.61
17060;BME280;8646;49.716;9.266;2023-08-31T03:16:35;99690.34;;;14.02;95.55
17060;BME280;8646;49.716;9.266;2023-08-31T03:19:41;99693.72;;;14.05;94.82
17060;BME280;8646;49.716;9.266;2023-08-31T03:22:44;99703.25;;;13.98;94.88
17060;BME280;8646;49.716;9.266;2023-08-31T03:25:47;99699.22;;;13.91;94.68
17060;BME280;8646;49.716;9.266;2023-08-31T03:28:51;99701.25;;;13.88;95.07
17060;BME280;8646;49.716;9.266;2023-08-31T03:31:54;99701.25;;;13.88;95.06
17060;BME280;8646;49.716;9.266;2023-08-31T03:34:57;99700.09;;;13.92;95.30
17060;BME280;8646;49.716;9.266;2023-08-31T03:37:59;99715.91;;;13.99;95.51
17060;BME280;8646;49.716;9.266;2023-08-31T03:41:03;99711.59;;;14.09;94.98
17060;BME280;8646;49.716;9.266;2023-08-31T03:44:07;99714.78;;;14.16;95.57
17060;BME280;8646;49.716;9.266;2023-08-31T03:47:10;99724.94;;;14.27;95.16
17060;BME280;8646;49.716;9.266;2023-08-31T03:50:14;99728.22;;;14.32;95.41
17060;BME280;8646;49.716;9.266;2023-08-31T03:53:16;99731.34;;;14.40;95.20
17060;BME280;8646;49.716;9.266;2023-08-31T03:56:19;99736.34;;;14.46;95.25
17060;BME280;8646;49.716;9.266;2023-08-31T03:59:23;99731.34;;;14.52;94.48
17060;BME280;8646;49.716;9.266;2023-08-31T04:02:26;99737.47;;;14.56;94.85
17060;BME280;8646;49.716;9.266;2023-08-31T04:05:32;99734.22;;;14.64;93.89
17060;BME280;8646;49.716;9.266;2023-08-31T04:08:35;99735.66;;;14.69;94.39
17060;BME280;8646;49.716;9.266;2023-08-31T04:11:38;99735.56;;;14.71;94.68
17060;BME280;8646;49.716;9.266;2023-08-31T04:14:42;99745.13;;;14.76;94.23
17060;BME280;8646;49.716;9.266;2023-08-31T04:17:45;99743.19;;;14.78;94.34
17060;BME280;8646;49.716;9.266;2023-08-31T04:20:49;99737.53;;;14.81;94.50
17060;BME280;8646;49.716;9.266;2023-08-31T04:23:53;99736.44;;;14.84;93.91
17060;BME280;8646;49.716;9.266;2023-08-31T04:26:56;99741.03;;;14.83;93.80
17060;BME280;8646;49.716;9.266;2023-08-31T04:30:04;99743.53;;;14.86;92.92
17060;BME280;8646;49.716;9.266;2023-08-31T04:33:07;99747.56;;;14.94;92.81
17060;BME280;8646;49.716;9.266;2023-08-31T04:36:09;99752.38;;;14.90;93.39
17060;BME280;8646;49.716;9.266;2023-08-31T04:39:12;99756.38;;;14.84;93.60
17060;BME280;8646;49.716;9.266;2023-08-31T04:42:15;99760.22;;;14.82;93.87
17060;BME280;8646;49.716;9.266;2023-08-31T04:45:20;99764.09;;;14.78;93.96
17060;BME280;8646;49.716;9.266;2023-08-31T04:48:23;99766.06;;;14.76;94.41
17060;BME280;8646;49.716;9.266;2023-08-31T04:51:30;99754.63;;;14.71;94.58
17060;BME280;8646;49.716;9.266;2023-08-31T04:54:34;99763.66;;;14.84;93.85
17060;BME280;8646;49.716;9.266;2023-08-31T04:57:36;99761.72;;;14.86;93.92
17060;BME280;8646;49.716;9.266;2023-08-31T05:00:40;99761.97;;;14.96;92.98
17060;BME280;8646;49.716;9.266;2023-08-31T05:03:43;99767.63;;;14.93;93.32
17060;BME280;8646;49.716;9.266;2023-08-31T05:06:46;99771.00;;;14.96;93.53
17060;BME280;8646;49.716;9.266;2023-08-31T05:09:49;99767.97;;;15.01;93.71
17060;BME280;8646;49.716;9.266;2023-08-31T05:12:52;99776.59;;;15.07;93.31
17060;BME280;8646;49.716;9.266;2023-08-31T05:16:00;99780.75;;;15.13;93.25
17060;BME280;8646;49.716;9.266;2023-08-31T05:19:04;99790.91;;;15.23;92.09
17060;BME280;8646;49.716;9.266;2023-08-31T05:22:07;99789.50;;;15.31;90.79
17060;BME280;8646;49.716;9.266;2023-08-31T05:25:10;99794.50;;;15.24;90.55
17060;BME280;8646;49.716;9.266;2023-08-31T05:28:12;99793.69;;;15.09;91.01
17060;BME280;8646;49.716;9.266;2023-08-31T05:31:16;99799.28;;;15.08;91.15
17060;BME280;8646;49.716;9.266;2023-08-31T05:34:21;99798.06;;;15.12;90.93
17060;BME280;8646;49.716;9.266;2023-08-31T05:37:24;99795.78;;;15.18;90.88
17060;BME280;8646;49.716;9.266;2023-08-31T05:40:27;99804.72;;;15.33;90.38
17060;BME280;8646;49.716;9.266;2023-08-31T05:43:30;99805.84;;;15.43;88.75
17060;BME280;8646;49.716;9.266;2023-08-31T05:46:34;99814.00;;;15.43;89.42
17060;BME280;8646;49.716;9.266;2023-08-31T05:49:37;99815.06;;;15.55;89.86
17060;BME280;8646;49.716;9.266;2023-08-31T05:52:39;99809.13;;;15.74;89.10
17060;BME280;8646;49.716;9.266;2023-08-31T05:55:45;99816.44;;;15.86;88.42
17060;BME280;8646;49.716;9.266;2023-08-31T05:58:48;99808.13;;;16.00;87.04
17060;BME280;8646;49.716;9.266;2023-08-31T06:01:53;99813.81;;;16.33;86.31
17060;BME280;8646;49.716;9.266;2023-08-31T06:04:56;99805.75;;;16.92;81.78
17060;BME280;8646;49.716;9.266;2023-08-31T06:08:03;99803.06;;;17.49;80.61
17060;BME280;8646;49.716;9.266;2023-08-31T06:11:05;99805.94;;;18.26;79.75
17060;BME280;8646;49.716;9.266;2023-08-31T06:14:08;99797.31;;;18.53;75.58
17060;BME280;8646;49.716;9.266;2023-08-31T06:17:12;99812.38;;;18.70;76.41
17060;BME280;8646;49.716;9.266;2023-08-31T06:20:16;99813.41;;;18.89;74.81
17060;BME280;8646;49.716;9.266;2023-08-31T06:23:21;99801.81;;;18.97;74.47
17060;BME280;8646;49.716;9.266;2023-08-31T06:26:24;99800.13;;;19.37;72.96
17060;BME280;8646;49.716;9.266;2023-08-31T06:29:27;99795.44;;;20.00;71.83
17060;BME280;8646;49.716;9.266;2023-08-31T06:32:31;99795.75;;;20.47;70.17
17060;BME280;8646;49.716;9.266;2023-08-31T06:35:34;99796.94;;;20.54;69.47
17060;BME280;8646;49.716;9.266;2023-08-31T06:38:39;99810.25;;;20.18;70.20
17060;BME280;8646;49.716;9.266;2023-08-31T06:41:42;99811.66;;;20.13;70.14
17060;BME280;8646;49.716;9.266;2023-08-31T06:44:45;99814.03;;;20.58;70.56
17060;BME280;8646;49.716;9.266;2023-08-31T06:47:49;99816.53;;;20.89;68.64
17060;BME280;8646;49.716;9.266;2023-08-31T06:50:52;99809.47;;;21.35;67.61
17060;BME280;8646;49.716;9.266;2023-08-31T06:53:55;99814.63;;;21.57;65.97
17060;BME280;8646;49.716;9.266;2023-08-31T06:57:03;99813.19;;;21.63;65.62
17060;BME280;8646;49.716;9.266;2023-08-31T07:00:06;99814.94;;;21.64;64.53
17060;BME280;8646;49.716;9.266;2023-08-31T07:03:12;99812.56;;;21.88;64.74
17060;BME280;8646;49.716;9.266;2023-08-31T07:06:16;99821.38;;;21.92;63.30
17060;BME280;8646;49.716;9.266;2023-08-31T07:09:19;99815.69;;;22.13;63.43
17060;BME280;8646;49.716;9.266;2023-08-31T07:12:22;99818.81;;;22.27;63.10
17060;BME280;8646;49.716;9.266;2023-08-31T07:15:25;99818.34;;;22.32;62.49
17060;BME280;8646;49.716;9.266;2023-08-31T07:18:31;99824.84;;;21.94;63.38
17060;BME280;8646;49.716;9.266;2023-08-31T07:21:34;99831.78;;;21.22;65.79
17060;BME280;8646;49.716;9.266;2023-08-31T07:24:37;99849.03;;;20.55;67.63
17060;BME280;8646;49.716;9.266;2023-08-31T07:27:40;99847.75;;;19.99;68.04
17060;BME280;8646;49.716;9.266;2023-08-31T07:30:43;99854.34;;;19.66;69.78
17060;BME280;8646;49.716;9.266;2023-08-31T07:33:47;99858.06;;;19.44;69.20
17060;BME280;8646;49.716;9.266;2023-08-31T07:36:50;99877.19;;;19.34;68.30
17060;BME280;8646;49.716;9.266;2023-08-31T07:39:53;99874.78;;;19.41;68.92
17060;BME280;8646;49.716;9.266;2023-08-31T07:42:56;99872.41;;;19.48;66.46
17060;BME280;8646;49.716;9.266;2023-08-31T07:45:58;99871.41;;;19.49;66.86
17060;BME280;8646;49.716;9.266;2023-08-31T07:49:03;99871.41;;;19.49;67.18
17060;BME280;8646;49.716;9.266;2023-08-31T07:52:06;99887.38;;;19.43;67.19
17060;BME280;8646;49.716;9.266;2023-08-31T07:55:09;99880.94;;;19.33;67.06
17060;BME280;8646;49.716;9.266;2023-08-31T07:58:12;99891.03;;;19.33;67.71
17060;BME280;8646;49.716;9.266;2023-08-31T08:01:14;99884.66;;;19.32;67.63
17060;BME280;8646;49.716;9.266;2023-08-31T08:04:19;99882.91;;;19.31;66.68
17060;BME280;8646;49.716;9.266;2023-08-31T08:07:22;99888.06;;;19.25;67.61
17060;BME280;8646;49.716;9.266;2023-08-31T08:10:24;99900.44;;;19.19;67.72
17060;BME280;8646;49.716;9.266;2023-08-31T08:13:28;99904.19;;;19.18;68.00
17060;BME280;8646;49.716;9.266;2023-08-31T08:16:30;99904.53;;;19.25;67.38
17060;BME280;8646;49.716;9.266;2023-08-31T08:19:35;99903.13;;;19.30;66.91
17060;BME280;8646;49.716;9.266;2023-08-31T08:22:37;99903.75;;;19.34;67.15
17060;BME280;8646;49.716;9.266;2023-08-31T08:25:40;99909.47;;;19.31;66.64
17060;BME280;8646;49.716;9.266;2023-08-31T08:28:43;99902.31;;;19.19;66.72
17060;BME280;8646;49.716;9.266;2023-08-31T08:31:46;99902.19;;;19.20;66.65
17060;BME280;8646;49.716;9.266;2023-08-31T08:34:50;99887.41;;;19.32;64.98
17060;BME280;8646;49.716;9.266;2023-08-31T08:37:53;99897.34;;;19.44;64.95
17060;BME280;8646;49.716;9.266;2023-08-31T08:40:56;99892.50;;;19.69;63.96
17060;BME280;8646;49.716;9.266;2023-08-31T08:44:02;99891.56;;;20.00;62.82
17060;BME280;8646;49.716;9.266;2023-08-31T08:47:06;99903.25;;;20.23;60.30
17060;BME280;8646;49.716;9.266;2023-08-31T08:50:11;99898.06;;;20.30;59.58
17060;BME280;8646;49.716;9.266;2023-08-31T08:53:14;99898.19;;;20.28;56.32
17060;BME280;8646;49.716;9.266;2023-08-31T08:56:17;99909.34;;;20.27;58.26
17060;BME280;8646;49.716;9.266;2023-08-31T08:59:20;99909.41;;;20.36;57.30
17060;BME280;8646;49.716;9.266;2023-08-31T09:02:24;99917.00;;;20.53;56.78
17060;BME280;8646;49.716;9.266;2023-08-31T09:05:31;99902.72;;;20.69;54.71
17060;BME280;8646;49.716;9.266;2023-08-31T09:08:34;99901.78;;;20.89;54.28
17060;BME280;8646;49.716;9.266;2023-08-31T09:11:38;99898.91;;;21.10;53.70
17060;BME280;8646;49.716;9.266;2023-08-31T09:14:41;99913.16;;;21.25;54.17
17060;BME280;8646;49.716;9.266;2023-08-31T09:17:44;99904.78;;;21.36;52.59
17060;BME280;8646;49.716;9.266;2023-08-31T09:20:50;99911.59;;;21.51;52.61
17060;BME280;8646;49.716;9.266;2023-08-31T09:23:57;99904.78;;;21.55;51.10
17060;BME280;8646;49.716;9.266;2023-08-31T09:27:00;99904.50;;;21.39;51.92
17060;BME280;8646;49.716;9.266;2023-08-31T09:30:03;99905.94;;;21.24;51.92
17060;BME280;8646;49.716;9.266;2023-08-31T09:33:07;99904.13;;;21.04;50.49
17060;BME280;8646;49.716;9.266;2023-08-31T09:36:11;99900.03;;;20.88;51.51
17060;BME280;8646;49.716;9.266;2023-08-31T09:39:14;99911.31;;;20.85;52.88
17060;BME280;8646;49.716;9.266;2023-08-31T09:42:17;99915.41;;;21.01;52.96
17060;BME280;8646;49.716;9.266;2023-08-31T09:45:25;99888.25;;;21.26;50.76
17060;BME280;8646;49.716;9.266;2023-08-31T09:48:45;99906.78;;;21.34;51.12
17060;BME280;8646;49.716;9.266;2023-08-31T09:51:51;99906.81;;;21.63;50.68
17060;BME280;8646;49.716;9.266;2023-08-31T09:54:54;99904.47;;;21.87;50.87
17060;BME280;8646;49.716;9.266;2023-08-31T09:57:59;99909.34;;;22.22;49.61
17060;BME280;8646;49.716;9.266;2023-08-31T10:01:16;99902.78;;;22.33;47.07
17060;BME280;8646;49.716;9.266;2023-08-31T10:04:31;99896.25;;;22.34;47.44
17060;BME280;8646;49.716;9.266;2023-08-31T10:07:36;99890.34;;;22.29;46.81
17060;BME280;8646;49.716;9.266;2023-08-31T10:10:40;99903.00;;;22.12;47.59
17060;BME280;8646;49.716;9.266;2023-08-31T10:13:44;99902.13;;;22.12;48.13
17060;BME280;8646;49.716;9.266;2023-08-31T10:16:48;99913.41;;;22.28;49.39
17060;BME280;8646;49.716;9.266;2023-08-31T10:19:55;99905.34;;;22.44;49.13
17060;BME280;8646;49.716;9.266;2023-08-31T10:23:00;99916.03;;;22.57;49.14
17060;BME280;8646;49.716;9.266;2023-08-31T10:26:05;99913.25;;;22.66;49.18
17060;BME280;8646;49.716;9.266;2023-08-31T10:29:25;99911.75;;;22.72;48.89
17060;BME280;8646;49.716;9.266;2023-08-31T10:32:28;99910.97;;;22.89;47.98
17060;BME280;8646;49.716;9.266;2023-08-31T10:35:41;99913.47;;;23.10;47.98
17060;BME280;8646;49.716;9.266;2023-08-31T10:38:47;99906.84;;;23.20;47.63
17060;BME280;8646;49.716;9.266;2023-08-31T10:41:54;99910.38;;;23.13;47.14
17060;BME280;8646;49.716;9.266;2023-08-31T10:45:05;99922.34;;;22.86;47.66
17060;BME280;8646;49.716;9.266;2023-08-31T10:48:08;99921.81;;;22.63;47.92
17060;BME280;8646;49.716;9.266;2023-08-31T10:51:15;99920.00;;;22.44;47.17
17060;BME280;8646;49.716;9.266;2023-08-31T10:54:24;99924.03;;;22.50;47.51
17060;BME280;8646;49.716;9.266;2023-08-31T10:57:29;99901.03;;;22.69;46.63
17060;BME280;8646;49.716;9.266;2023-08-31T11:00:52;99901.78;;;22.98;47.08
17060;BME280;8646;49.716;9.266;2023-08-31T11:03:58;99870.31;;;22.91;46.11
17060;BME280;8646;49.716;9.266;2023-08-31T11:07:15;99896.91;;;23.10;46.28
17060;BME280;8646;49.716;9.266;2023-08-31T11:10:20;99897.38;;;23.05;45.51
17060;BME280;8646;49.716;9.266;2023-08-31T11:13:24;99891.38;;;23.28;44.65
17060;BME280;8646;49.716;9.266;2023-08-31T11:16:29;99891.84;;;23.50;44.17
17060;BME280;8646;49.716;9.266;2023-08-31T11:19:33;99876.59;;;23.64;44.39
17060;BME280;8646;49.716;9.266;2023-08-31T11:22:40;99880.34;;;23.81;44.63
17060;BME280;8646;49.716;9.266;2023-08-31T11:25:47;99887.59;;;24.00;44.76
17060;BME280;8646;49.716;9.266;2023-08-31T11:28:50;99884.53;;;24.11;43.87
17060;BME280;8646;49.716;9.266;2023-08-31T11:31:52;99886.94;;;24.06;43.58
17060;BME280;8646;49.716;9.266;2023-08-31T11:34:55;99873.81;;;23.82;42.80
17060;BME280;8646;49.716;9.266;2023-08-31T11:37:58;99873.19;;;23.70;42.60
17060;BME280;8646;49.716;9.266;2023-08-31T11:41:04;99875.63;;;23.73;42.03
17060;BME280;8646;49.716;9.266;2023-08-31T11:44:07;99873.09;;;23.80;42.20
17060;BME280;8646;49.716;9.266;2023-08-31T11:47:10;99881.16;;;23.73;42.27
17060;BME280;8646;49.716;9.266;2023-08-31T11:50:14;99875.94;;;23.70;41.83
17060;BME280;8646;49.716;9.266;2023-08-31T11:53:18;99891.66;;;23.70;41.83
17060;BME280;8646;49.716;9.266;2023-08-31T11:56:22;99896.22;;;23.61;42.03
17060;BME280;8646;49.716;9.266;2023-08-31T11:59:25;99885.69;;;23.56;42.03
17060;BME280;8646;49.716;9.266;2023-08-31T12:02:28;99893.16;;;23.64;41.65
17060;BME280;8646;49.716;9.266;2023-08-31T12:05:44;99899.88;;;23.62;42.27
17060;BME280;8646;49.716;9.266;2023-08-31T12:08:48;99896.09;;;23.63;42.47
17060;BME280;8646;49.716;9.266;2023-08-31T12:11:53;99897.59;;;23.57;42.27
17060;BME280;8646;49.716;9.266;2023-08-31T12:14:57;99898.28;;;23.41;42.13
17060;BME280;8646;49.716;9.266;2023-08-31T12:18:07;99892.19;;;23.38;41.70
17060;BME280;8646;49.716;9.266;2023-08-31T12:21:10;99884.47;;;23.41;41.88
17060;BME280;8646;49.716;9.266;2023-08-31T12:24:13;99880.38;;;23.63;42.14
17060;BME280;8646;49.716;9.266;2023-08-31T12:27:20;99886.03;;;23.79;41.52
17060;BME280;8646;49.716;9.266;2023-08-31T12:30:22;99888.81;;;23.79;41.86
17060;BME280;8646;49.716;9.266;2023-08-31T12:33:27;99866.72;;;23.62;42.12
17060;BME280;8646;49.716;9.266;2023-08-31T12:36:30;99878.25;;;23.57;42.47
17060;BME280;8646;49.716;9.266;2023-08-31T12:39:33;99876.97;;;23.51;42.23
17060;BME280;8646;49.716;9.266;2023-08-31T12:42:37;99858.59;;;23.42;41.42
17060;BME280;8646;49.716;9.266;2023-08-31T12:45:40;99855.16;;;23.58;41.63
17060;BME280;8646;49.716;9.266;2023-08-31T12:48:43;99861.19;;;23.62;41.59
17060;BME280;8646;49.716;9.266;2023-08-31T12:51:46;99861.44;;;23.33;41.57
17060;BME280;8646;49.716;9.266;2023-08-31T12:54:50;99868.28;;;22.93;42.09
17060;BME280;8646;49.716;9.266;2023-08-31T12:57:54;99864.75;;;22.64;42.23
17060;BME280;8646;49.716;9.266;2023-08-31T13:00:57;99869.25;;;22.37;42.86
17060;BME280;8646;49.716;9.266;2023-08-31T13:04:01;99874.72;;;22.47;42.90
17060;BME280;8646;49.716;9.266;2023-08-31T13:07:04;99871.63;;;22.87;41.82
17060;BME280;8646;49.716;9.266;2023-08-31T13:10:08;99874.53;;;23.31;41.82
17060;BME280;8646;49.716;9.266;2023-08-31T13:13:12;99873.97;;;23.80;40.25
17060;BME280;8646;49.716;9.266;2023-08-31T13:16:15;99863.94;;;24.23;40.37
17060;BME280;8646;49.716;9.266;2023-08-31T13:19:18;99873.44;;;24.54;38.25
17060;BME280;8646;49.716;9.266;2023-08-31T13:22:22;99866.69;;;24.57;38.11
17060;BME280;8646;49.716;9.266;2023-08-31T13:25:29;99868.06;;;24.53;39.04
17060;BME280;8646;49.716;9.266;2023-08-31T13:28:33;99871.38;;;24.56;38.90
17060;BME280;8646;49.716;9.266;2023-08-31T13:31:37;99866.25;;;24.36;38.34
17060;BME280;8646;49.716;9.266;2023-08-31T13:34:41;99868.34;;;24.42;38.24
17060;BME280;8646;49.716;9.266;2023-08-31T13:37:43;99863.72;;;24.50;38.09
17060;BME280;8646;49.716;9.266;2023-08-31T13:40:46;99858.28;;;24.75;38.28
17060;BME280;8646;49.716;9.266;2023-08-31T13:43:52;99860.13;;;25.00;37.21
17060;BME280;8646;49.716;9.266;2023-08-31T13:46:56;99862.25;;;25.14;36.71
17060;BME280;8646;49.716;9.266;2023-08-31T13:49:59;99847.75;;;25.28;37.36
17060;BME280;8646;49.716;9.266;2023-08-31T13:53:02;99838.41;;;25.21;36.25
17060;BME280;8646;49.716;9.266;2023-08-31T13:56:06;99843.34;;;24.93;36.04
17060;BME280;8646;49.716;9.266;2023-08-31T13:59:10;99865.97;;;24.89;36.99
17060;BME280;8646;49.716;9.266;2023-08-31T14:02:13;99857.81;;;24.79;37.21
17060;BME280;8646;49.716;9.266;2023-08-31T14:05:16;99852.91;;;24.73;37.31
17060;BME280;8646;49.716;9.266;2023-08-31T14:08:20;99858.19;;;24.50;37.42
17060;BME280;8646;49.716;9.266;2023-08-31T14:11:23;99851.22;;;24.38;37.70
17060;BME280;8646;49.716;9.266;2023-08-31T14:14:28;99856.75;;;24.38;37.60
17060;BME280;8646;49.716;9.266;2023-08-31T14:17:31;99852.22;;;24.29;37.28
17060;BME280;8646;49.716;9.266;2023-08-31T14:20:33;99855.66;;;24.23;37.62
17060;BME280;8646;49.716;9.266;2023-08-31T14:23:36;99846.56;;;24.13;37.69
17060;BME280;8646;49.716;9.266;2023-08-31T14:26:39;99846.06;;;24.17;38.14
17060;BME280;8646;49.716;9.266;2023-08-31T14:29:43;99852.94;;;24.13;37.90
17060;BME280;8646;49.716;9.266;2023-08-31T14:32:46;99851.81;;;23.98;37.83
17060;BME280;8646;49.716;9.266;2023-08-31T14:35:50;99859.84;;;23.83;38.05
17060;BME280;8646;49.716;9.266;2023-08-31T14:38:54;99857.03;;;23.75;38.53
17060;BME280;8646;49.716;9.266;2023-08-31T14:41:57;99864.19;;;23.68;38.66
17060;BME280;8646;49.716;9.266;2023-08-31T14:45:02;99864.75;;;23.54;39.13
17060;BME280;8646;49.716;9.266;2023-08-31T14:48:06;99874.22;;;23.69;39.03
17060;BME280;8646;49.716;9.266;2023-08-31T14:51:09;99873.97;;;23.80;39.50
17060;BME280;8646;49.716;9.266;2023-08-31T14:54:12;99871.25;;;23.88;39.72
17060;BME280;8646;49.716;9.266;2023-08-31T14:57:15;99872.72;;;23.75;40.14
17060;BME280;8646;49.716;9.266;2023-08-31T15:00:20;99882.03;;;23.56;40.62
17060;BME280;8646;49.716;9.266;2023-08-31T15:03:23;99877.16;;;23.50;40.62
17060;BME280;8646;49.716;9.266;2023-08-31T15:06:27;99881.66;;;23.51;41.13
17060;BME280;8646;49.716;9.266;2023-08-31T15:09:33;99880.06;;;23.66;40.94
17060;BME280;8646;49.716;9.266;2023-08-31T15:12:37;99881.06;;;23.83;40.20
17060;BME280;8646;49.716;9.266;2023-08-31T15:15:45;99879.72;;;23.69;40.70
17060;BME280;8646;49.716;9.266;2023-08-31T15:18:48;99873.44;;;23.59;40.75
17060;BME280;8646;49.716;9.266;2023-08-31T15:21:51;99873.88;;;23.37;41.12
17060;BME280;8646;49.716;9.266;2023-08-31T15:24:55;99876.03;;;23.25;41.53
17060;BME280;8646;49.716;9.266;2023-08-31T15:27:58;99878.13;;;23.13;41.88
17060;BME280;8646;49.716;9.266;2023-08-31T15:31:05;99887.97;;;22.98;42.16
17060;BME280;8646;49.716;9.266;2023-08-31T15:34:09;99892.69;;;22.88;42.32
17060;BME280;8646;49.716;9.266;2023-08-31T15:37:12;99891.88;;;22.78;42.63
17060;BME280;8646;49.716;9.266;2023-08-31T15:40:15;99890.88;;;22.69;42.98
17060;BME280;8646;49.716;9.266;2023-08-31T15:43:18;99873.56;;;22.50;43.28
17060;BME280;8646;49.716;9.266;2023-08-31T15:46:23;99882.88;;;22.39;43.50
17060;BME280;8646;49.716;9.266;2023-08-31T15:49:26;99885.69;;;22.29;43.74
17060;BME280;8646;49.716;9.266;2023-08-31T15:52:29;99877.13;;;22.23;43.87
17060;BME280;8646;49.716;9.266;2023-08-31T15:55:32;99893.13;;;22.10;43.89
17060;BME280;8646;49.716;9.266;2023-08-31T15:58:35;99880.69;;;21.96;43.99
17060;BME280;8646;49.716;9.266;2023-08-31T16:01:54;99892.59;;;21.87;44.59
17060;BME280;8646;49.716;9.266;2023-08-31T16:05:14;99895.75;;;21.82;44.52
17060;BME280;8646;49.716;9.266;2023-08-31T16:08:17;99878.09;;;21.85;44.67
17060;BME280;8646;49.716;9.266;2023-08-31T16:11:20;99883.72;;;21.83;44.59
17060;BME280;8646;49.716;9.266;2023-08-31T16:14:25;99898.69;;;21.81;44.66
17060;BME280;8646;49.716;9.266;2023-08-31T16:17:29;99898.09;;;21.77;44.91
17060;BME280;8646;49.716;9.266;2023-08-31T16:20:35;99895.47;;;21.76;45.02
17060;BME280;8646;49.716;9.266;2023-08-31T16:23:38;99893.88;;;21.83;45.00
17060;BME280;8646;49.716;9.266;2023-08-31T16:26:41;99894.47;;;21.77;45.36
17060;BME280;8646;49.716;9.266;2023-08-31T16:29:45;99900.72;;;21.79;45.67